createdAt,value
2019-06-27T00:02:13.286Z,9.33
2019-06-27T00:04:42.750Z,9.25
2019-06-27T00:07:12.294Z,9.38
2019-06-27T00:09:41.808Z,9.08
2019-06-27T00:12:11.280Z,9.73
2019-06-27T00:14:40.789Z,9.10
2019-06-27T00:17:10.744Z,9.20
2019-06-27T00:19:40.223Z,9.40
2019-06-27T00:22:09.740Z,9.05
2019-06-27T00:24:39.269Z,8.75
2019-06-27T00:27:08.833Z,8.98
2019-06-27T00:29:38.310Z,8.60
2019-06-27T00:32:07.841Z,9.18
2019-06-27T00:34:37.418Z,8.93
2019-06-27T00:37:08.596Z,8.60
2019-06-27T00:39:38.229Z,8.25
2019-06-27T00:42:07.834Z,8.60
2019-06-27T00:44:37.334Z,9.90
2019-06-27T00:47:06.815Z,8.43
2019-06-27T00:49:36.472Z,8.43
2019-06-27T00:52:05.962Z,8.80
2019-06-27T00:54:35.426Z,9.58
2019-06-27T00:57:13.844Z,8.65
2019-06-27T00:59:36.318Z,9.30
2019-06-27T01:02:05.790Z,9.20
2019-06-27T01:04:35.283Z,8.95
2019-06-27T01:07:04.713Z,9.30
2019-06-27T01:09:34.160Z,9.10
2019-06-27T01:12:03.628Z,8.93
2019-06-27T01:14:33.064Z,8.68
2019-06-27T01:17:02.595Z,8.40
2019-06-27T01:19:32.051Z,9.18
2019-06-27T01:22:01.552Z,9.18
2019-06-27T01:24:31.055Z,9.88
2019-06-27T01:27:00.533Z,9.00
2019-06-27T01:29:30.006Z,9.13
2019-06-27T01:31:59.486Z,9.53
2019-06-27T01:34:28.960Z,8.80
2019-06-27T01:36:58.470Z,8.50
2019-06-27T01:39:27.921Z,9.15
2019-06-27T01:41:57.413Z,9.78
2019-06-27T01:44:57.775Z,9.08
2019-06-27T01:47:27.265Z,9.03
2019-06-27T01:49:56.865Z,9.00
2019-06-27T01:52:26.323Z,8.43
2019-06-27T01:54:57.219Z,8.98
2019-06-27T01:57:26.667Z,9.43
2019-06-27T01:59:56.193Z,9.18
2019-06-27T02:02:25.707Z,9.73
2019-06-27T02:04:56.751Z,9.10
2019-06-27T02:07:26.247Z,9.48
2019-06-27T02:09:55.788Z,9.20
2019-06-27T02:12:26.470Z,9.48
2019-06-27T02:14:55.963Z,9.73
2019-06-27T02:17:25.432Z,8.95
2019-06-27T02:19:56.896Z,9.60
2019-06-27T02:22:27.541Z,9.80
2019-06-27T02:24:59.316Z,9.58
2019-06-27T02:27:28.974Z,9.38
2019-06-27T02:29:58.462Z,9.68
2019-06-27T02:32:27.911Z,9.55
2019-06-27T02:34:58.309Z,9.45
2019-06-27T02:37:28.359Z,9.80
2019-06-27T02:39:57.898Z,9.25
2019-06-27T02:42:27.403Z,10.05
2019-06-27T02:44:56.911Z,10.15
2019-06-27T02:47:28.156Z,9.83
2019-06-27T02:49:58.635Z,9.05
2019-06-27T02:52:33.121Z,9.50
2019-06-27T02:55:02.647Z,9.70
2019-06-27T02:57:32.194Z,9.15
2019-06-27T03:00:01.755Z,9.05
2019-06-27T03:02:33.623Z,8.93
2019-06-27T03:05:03.130Z,9.48
2019-06-27T03:07:33.101Z,8.80
2019-06-27T03:10:02.588Z,9.03
2019-06-27T03:12:32.113Z,9.08
2019-06-27T03:15:01.655Z,9.03
2019-06-27T03:17:31.108Z,9.73
2019-06-27T03:20:00.595Z,9.00
2019-06-27T03:22:30.222Z,10.03
2019-06-27T03:24:59.755Z,9.95
2019-06-27T03:27:29.235Z,9.90
2019-06-27T03:29:58.812Z,9.90
2019-06-27T03:32:28.431Z,10.43
2019-06-27T03:34:57.888Z,10.05
2019-06-27T03:37:27.408Z,10.68
2019-06-27T03:39:57.290Z,9.88
2019-06-27T03:42:27.884Z,11.08
2019-06-27T03:44:57.501Z,10.78
2019-06-27T03:47:27.149Z,10.53
2019-06-27T03:49:56.726Z,10.45
2019-06-27T03:52:26.644Z,10.35
2019-06-27T03:54:56.116Z,10.93
2019-06-27T03:57:25.623Z,9.83
2019-06-27T03:59:57.363Z,10.40
2019-06-27T04:02:26.975Z,9.38
2019-06-27T04:04:56.595Z,8.23
2019-06-27T04:07:26.144Z,8.25
2019-06-27T04:09:55.608Z,8.33
2019-06-27T04:12:25.090Z,8.55
2019-06-27T04:14:55.869Z,8.23
2019-06-27T04:17:25.304Z,8.10
2019-06-27T04:19:54.778Z,7.92
2019-06-27T04:22:24.313Z,8.13
2019-06-27T04:24:53.803Z,7.50
2019-06-27T04:27:23.263Z,6.65
2019-06-27T04:29:52.726Z,7.20
2019-06-27T04:32:22.218Z,7.00
2019-06-27T04:34:51.678Z,6.40
2019-06-27T04:37:21.133Z,6.62
2019-06-27T04:39:50.597Z,6.22
2019-06-27T04:42:20.092Z,6.97
2019-06-27T04:44:49.616Z,5.42
2019-06-27T04:47:19.089Z,6.53
2019-06-27T04:49:48.596Z,5.97
2019-06-27T04:52:18.082Z,5.65
2019-06-27T04:54:47.586Z,5.45
2019-06-27T04:57:17.078Z,5.10
2019-06-27T04:59:53.303Z,4.95
2019-06-27T05:02:17.640Z,5.20
2019-06-27T05:04:47.092Z,4.78
2019-06-27T05:07:16.559Z,4.90
2019-06-27T05:09:46.013Z,4.60
2019-06-27T05:12:15.513Z,5.00
2019-06-27T05:14:45.070Z,4.45
2019-06-27T05:17:14.527Z,4.40
2019-06-27T05:19:44.070Z,4.62
2019-06-27T05:22:13.575Z,4.95
2019-06-27T05:24:43.071Z,4.45
2019-06-27T05:27:12.530Z,4.40
2019-06-27T05:29:42.021Z,4.03
2019-06-27T05:32:11.475Z,4.37
2019-06-27T05:34:40.945Z,4.30
2019-06-27T05:37:10.358Z,4.17
2019-06-27T05:39:39.803Z,3.83
2019-06-27T05:42:09.248Z,4.45
2019-06-27T05:44:38.733Z,4.55
2019-06-27T05:47:08.158Z,4.62
2019-06-27T05:49:37.624Z,4.10
2019-06-27T05:52:07.095Z,4.08
2019-06-27T05:54:36.513Z,4.75
2019-06-27T05:57:06.001Z,4.05
2019-06-27T05:59:35.422Z,4.72
2019-06-27T06:02:04.910Z,3.83
2019-06-27T06:04:34.381Z,4.70
2019-06-27T06:07:03.839Z,3.95
2019-06-27T06:09:33.262Z,3.83
2019-06-27T06:12:02.743Z,4.00
2019-06-27T06:14:32.203Z,4.33
2019-06-27T06:17:01.671Z,4.42
2019-06-27T06:19:31.115Z,4.47
2019-06-27T06:22:00.572Z,4.40
2019-06-27T06:24:30.004Z,4.35
2019-06-27T06:26:59.511Z,4.08
2019-06-27T06:29:28.944Z,4.00
2019-06-27T06:31:58.411Z,3.80
2019-06-27T06:34:27.928Z,4.17
2019-06-27T06:36:57.706Z,4.05
2019-06-27T06:39:27.320Z,4.00
2019-06-27T06:41:56.854Z,4.83
2019-06-27T06:44:26.758Z,4.62
2019-06-27T06:46:57.381Z,4.17
2019-06-27T06:49:26.860Z,4.10
2019-06-27T06:51:58.429Z,4.28
2019-06-27T06:54:27.887Z,4.80
2019-06-27T06:56:57.645Z,3.90
2019-06-27T06:59:29.232Z,4.70
2019-06-27T07:01:58.831Z,4.15
2019-06-27T07:04:28.252Z,4.75
2019-06-27T07:06:57.793Z,4.70
2019-06-27T07:09:27.303Z,4.53
2019-06-27T07:11:56.730Z,4.28
2019-06-27T07:14:27.129Z,4.80
2019-06-27T07:16:56.867Z,4.45
2019-06-27T07:19:26.639Z,4.10
2019-06-27T07:21:56.302Z,4.05
2019-06-27T07:24:25.838Z,4.08
2019-06-27T07:26:57.587Z,4.30
2019-06-27T07:29:27.066Z,3.87
2019-06-27T07:31:56.560Z,4.00
2019-06-27T07:34:26.012Z,4.03
2019-06-27T07:36:55.476Z,4.53
2019-06-27T07:39:24.925Z,3.75
2019-06-27T07:41:54.370Z,3.80
2019-06-27T07:44:23.830Z,3.75
2019-06-27T07:46:53.289Z,4.28
2019-06-27T07:49:22.706Z,4.10
2019-06-27T07:51:52.294Z,4.35
2019-06-27T07:54:21.763Z,4.25
2019-06-27T07:56:51.185Z,4.00
2019-06-27T07:59:20.664Z,4.08
2019-06-27T08:01:50.102Z,4.10
2019-06-27T08:04:19.546Z,4.40
2019-06-27T08:06:49.111Z,4.15
2019-06-27T08:09:18.538Z,4.60
2019-06-27T08:11:47.980Z,4.00
2019-06-27T08:14:17.406Z,4.40
2019-06-27T08:16:46.886Z,4.33
2019-06-27T08:19:16.348Z,4.80
2019-06-27T08:21:45.793Z,4.45
2019-06-27T08:24:15.310Z,4.00
2019-06-27T08:26:44.820Z,4.45
2019-06-27T08:29:14.274Z,4.70
2019-06-27T08:31:51.243Z,3.67
2019-06-27T08:34:16.469Z,4.08
2019-06-27T08:36:45.857Z,4.25
2019-06-27T08:39:15.344Z,4.17
2019-06-27T08:41:44.770Z,4.10
2019-06-27T08:44:14.240Z,4.25
2019-06-27T08:46:43.689Z,4.10
2019-06-27T08:49:13.153Z,4.25
2019-06-27T08:51:42.649Z,4.03
2019-06-27T08:54:12.095Z,4.10
2019-06-27T08:56:41.595Z,4.20
2019-06-27T08:59:11.210Z,3.70
2019-06-27T09:01:40.686Z,4.17
2019-06-27T09:04:10.165Z,3.85
2019-06-27T09:06:39.604Z,3.80
2019-06-27T09:09:09.244Z,3.65
2019-06-27T09:11:38.656Z,3.90
2019-06-27T09:14:08.189Z,3.08
2019-06-27T09:16:37.655Z,3.90
2019-06-27T09:19:07.536Z,3.40
2019-06-27T09:21:37.042Z,3.65
2019-06-27T09:24:06.615Z,3.83
2019-06-27T09:26:36.128Z,3.40
2019-06-27T09:29:05.575Z,3.77
2019-06-27T09:31:35.112Z,3.67
2019-06-27T09:34:04.569Z,3.10
2019-06-27T09:36:34.020Z,3.05
2019-06-27T09:39:03.543Z,3.60
2019-06-27T09:41:33.100Z,3.45
2019-06-27T09:44:02.655Z,3.52
2019-06-27T09:46:32.172Z,3.10
2019-06-27T09:49:01.633Z,3.22
2019-06-27T09:51:31.107Z,3.27
2019-06-27T09:54:00.582Z,3.75
2019-06-27T09:56:30.057Z,3.10
2019-06-27T09:58:59.496Z,3.02
2019-06-27T10:01:28.954Z,3.20
2019-06-27T10:03:58.447Z,3.17
2019-06-27T10:06:27.881Z,2.75
2019-06-27T10:08:57.359Z,3.00
2019-06-27T10:11:26.808Z,3.10
2019-06-27T10:13:57.963Z,2.85
2019-06-27T10:16:27.408Z,2.65
2019-06-27T10:18:58.335Z,2.83
2019-06-27T10:21:27.800Z,2.80
2019-06-27T10:23:57.256Z,2.52
2019-06-27T10:26:27.198Z,2.83
2019-06-27T10:28:56.956Z,2.55
2019-06-27T10:31:27.566Z,3.15
2019-06-27T10:33:58.591Z,3.30
2019-06-27T10:36:28.040Z,2.95
2019-06-27T10:38:57.751Z,3.02
2019-06-27T10:41:27.190Z,2.90
2019-06-27T10:43:58.488Z,2.60
2019-06-27T10:46:28.023Z,3.00
2019-06-27T10:48:57.448Z,2.67
2019-06-27T10:51:28.322Z,3.00
2019-06-27T10:53:57.795Z,2.95
2019-06-27T10:56:27.264Z,2.92
2019-06-27T10:58:56.726Z,2.87
2019-06-27T11:01:28.209Z,2.80
2019-06-27T11:03:57.668Z,2.92
2019-06-27T11:06:27.093Z,2.58
2019-06-27T11:08:56.780Z,2.70
2019-06-27T11:11:26.235Z,2.30
2019-06-27T11:13:59.236Z,3.00
2019-06-27T11:16:28.850Z,2.90
2019-06-27T11:18:58.451Z,2.58
2019-06-27T11:21:28.249Z,2.58
2019-06-27T11:23:57.754Z,2.50
2019-06-27T11:26:27.182Z,2.87
2019-06-27T11:28:56.667Z,2.65
2019-06-27T11:31:26.118Z,2.77
2019-06-27T11:33:55.598Z,2.90
2019-06-27T11:36:25.106Z,2.30
2019-06-27T11:38:54.550Z,2.55
2019-06-27T11:41:24.011Z,2.20
2019-06-27T11:43:53.472Z,2.27
2019-06-27T11:46:22.942Z,2.77
2019-06-27T11:48:52.385Z,2.40
2019-06-27T11:51:21.807Z,2.62
2019-06-27T11:53:51.283Z,2.40
2019-06-27T11:56:20.713Z,2.40
2019-06-27T11:58:50.172Z,2.40
2019-06-27T12:01:19.651Z,2.65
2019-06-27T12:03:50.036Z,2.92
2019-06-27T12:06:19.539Z,2.75
2019-06-27T12:08:49.011Z,2.40
2019-06-27T12:11:18.534Z,2.27
2019-06-27T12:13:47.947Z,2.52
2019-06-27T12:16:17.397Z,2.12
2019-06-27T12:18:46.915Z,2.12
2019-06-27T12:21:16.405Z,2.10
2019-06-27T12:23:45.875Z,2.27
2019-06-27T12:26:15.321Z,2.15
2019-06-27T12:28:44.761Z,2.35
2019-06-27T12:31:20.610Z,2.30
2019-06-27T12:33:45.286Z,2.27
2019-06-27T12:36:14.725Z,2.50
2019-06-27T12:38:44.153Z,2.40
2019-06-27T12:41:13.612Z,2.08
2019-06-27T12:43:43.065Z,2.00
2019-06-27T12:46:12.554Z,2.70
2019-06-27T12:48:42.101Z,1.98
2019-06-27T12:51:11.606Z,1.70
2019-06-27T12:53:42.146Z,2.00
2019-06-27T12:56:11.587Z,1.80
2019-06-27T12:58:41.065Z,2.00
2019-06-27T13:01:10.511Z,1.80
2019-06-27T13:03:39.998Z,1.92
2019-06-27T13:06:09.452Z,1.90
2019-06-27T13:08:38.901Z,1.95
2019-06-27T13:11:08.384Z,2.15
2019-06-27T13:13:37.846Z,2.12
2019-06-27T13:16:07.347Z,1.77
2019-06-27T13:18:36.779Z,2.20
2019-06-27T13:21:06.371Z,1.67
2019-06-27T13:23:35.808Z,1.72
2019-06-27T13:26:05.258Z,1.87
2019-06-27T13:28:34.703Z,1.77
2019-06-27T13:31:04.239Z,1.77
2019-06-27T13:33:33.664Z,1.90
2019-06-27T13:36:03.141Z,2.08
2019-06-27T13:38:32.584Z,1.90
2019-06-27T13:41:02.566Z,2.02
2019-06-27T13:43:32.112Z,2.02
2019-06-27T13:46:01.540Z,2.05
2019-06-27T13:48:31.000Z,2.10
2019-06-27T13:51:00.456Z,1.60
2019-06-27T13:53:29.928Z,1.87
2019-06-27T13:55:59.377Z,1.87
2019-06-27T13:58:28.838Z,1.72
2019-06-27T14:00:58.285Z,1.90
2019-06-27T14:03:27.748Z,1.87
2019-06-27T14:05:57.201Z,1.82
2019-06-27T14:08:26.654Z,2.35
2019-06-27T14:10:56.196Z,1.98
2019-06-27T14:13:25.638Z,2.00
2019-06-27T14:15:55.087Z,1.65
2019-06-27T14:18:24.515Z,1.90
2019-06-27T14:20:53.961Z,2.17
2019-06-27T14:23:23.373Z,1.87
2019-06-27T14:25:52.847Z,1.72
2019-06-27T14:28:22.268Z,2.02
2019-06-27T14:30:51.762Z,1.80
2019-06-27T14:33:21.192Z,1.80
2019-06-27T14:35:50.618Z,1.70
2019-06-27T14:38:20.054Z,2.30
2019-06-27T14:40:49.531Z,2.27
2019-06-27T14:43:19.028Z,1.95
2019-06-27T14:45:48.473Z,2.05
2019-06-27T14:48:17.951Z,2.35
2019-06-27T14:50:47.366Z,2.10
2019-06-27T14:53:16.913Z,2.22
2019-06-27T14:55:46.300Z,2.10
2019-06-27T14:58:15.740Z,2.25
2019-06-27T15:00:45.228Z,2.10
2019-06-27T15:03:14.732Z,2.10
2019-06-27T15:05:44.238Z,2.10
2019-06-27T15:08:13.690Z,1.90
2019-06-27T15:10:43.151Z,2.17
2019-06-27T15:13:12.620Z,2.33
2019-06-27T15:15:42.052Z,2.10
2019-06-27T15:18:11.505Z,1.80
2019-06-27T15:20:41.021Z,2.67
2019-06-27T15:23:10.544Z,2.10
2019-06-27T15:25:39.962Z,1.80
2019-06-27T15:28:09.423Z,2.17
2019-06-27T15:30:38.954Z,1.67
2019-06-27T15:33:08.418Z,1.90
2019-06-27T15:35:51.615Z,1.92
2019-06-27T15:38:09.028Z,2.30
2019-06-27T15:40:38.530Z,2.05
2019-06-27T15:43:07.973Z,1.80
2019-06-27T15:45:37.455Z,1.98
2019-06-27T15:48:06.902Z,1.95
2019-06-27T15:50:36.423Z,2.52
2019-06-27T15:53:05.896Z,3.62
2019-06-27T15:55:35.324Z,2.37
2019-06-27T15:58:04.778Z,2.33
2019-06-27T16:00:34.234Z,2.27
2019-06-27T16:03:03.794Z,2.70
2019-06-27T16:05:33.535Z,2.62
2019-06-27T16:08:03.124Z,2.42
2019-06-27T16:10:32.561Z,2.60
2019-06-27T16:13:02.795Z,3.00
2019-06-27T16:15:32.470Z,2.90
2019-06-27T16:18:01.936Z,2.52
2019-06-27T16:20:31.436Z,2.77
2019-06-27T16:23:00.859Z,2.47
2019-06-27T16:25:30.297Z,2.22
2019-06-27T16:27:59.753Z,1.92
2019-06-27T16:30:29.278Z,2.65
2019-06-27T16:32:58.738Z,2.58
2019-06-27T16:35:28.171Z,2.15
2019-06-27T16:37:57.703Z,2.35
2019-06-27T16:40:27.269Z,2.42
2019-06-27T16:42:56.708Z,2.33
2019-06-27T16:45:26.280Z,3.50
2019-06-27T16:47:55.820Z,2.80
2019-06-27T16:50:25.255Z,11.90
2019-06-27T16:52:54.718Z,4.90
2019-06-27T16:55:24.171Z,3.15
2019-06-27T16:57:53.614Z,3.12
2019-06-27T17:00:23.279Z,7.75
2019-06-27T17:02:52.800Z,2.60
2019-06-27T17:05:22.196Z,3.33
2019-06-27T17:07:51.686Z,2.50
2019-06-27T17:10:21.121Z,2.17
2019-06-27T17:12:50.568Z,1.82
2019-06-27T17:15:20.163Z,2.52
2019-06-27T17:17:49.614Z,2.12
2019-06-27T17:20:19.166Z,2.25
2019-06-27T17:22:48.649Z,1.72
2019-06-27T17:25:18.100Z,1.85
2019-06-27T17:27:47.582Z,2.75
2019-06-27T17:30:19.087Z,2.35
2019-06-27T17:32:48.561Z,2.00
2019-06-27T17:35:18.366Z,2.08
2019-06-27T17:37:47.802Z,2.47
2019-06-27T17:40:18.150Z,2.62
2019-06-27T17:42:47.595Z,2.20
2019-06-27T17:45:17.149Z,2.42
2019-06-27T17:47:46.633Z,1.87
2019-06-27T17:50:16.166Z,1.82
2019-06-27T17:52:45.605Z,1.65
2019-06-27T17:55:15.151Z,1.32
2019-06-27T17:57:47.140Z,1.17
2019-06-27T18:00:16.486Z,1.62
2019-06-27T18:02:46.942Z,1.50
2019-06-27T18:05:18.467Z,1.70
2019-06-27T18:07:47.494Z,1.55
2019-06-27T18:10:17.271Z,1.80
2019-06-27T18:12:46.710Z,1.60
2019-06-27T18:15:16.571Z,1.70
2019-06-27T18:17:46.035Z,1.60
2019-06-27T18:20:15.522Z,1.50
2019-06-27T18:22:44.966Z,1.87
2019-06-27T18:25:14.408Z,1.42
2019-06-27T18:27:43.889Z,1.30
2019-06-27T18:30:13.561Z,1.57
2019-06-27T18:32:43.133Z,1.30
2019-06-27T18:35:13.182Z,1.32
2019-06-27T18:37:42.625Z,1.17
2019-06-27T18:40:12.426Z,1.60
2019-06-27T18:42:41.925Z,3.98
2019-06-27T18:45:11.561Z,1.40
2019-06-27T18:47:41.035Z,1.35
2019-06-27T18:50:11.562Z,1.47
2019-06-27T18:52:41.036Z,1.60
2019-06-27T18:55:10.637Z,1.50
2019-06-27T18:57:40.220Z,1.35
2019-06-27T19:00:10.286Z,1.60
2019-06-27T19:02:39.751Z,2.10
2019-06-27T19:05:09.319Z,1.25
2019-06-27T19:07:45.667Z,1.50
2019-06-27T19:10:10.331Z,1.52
2019-06-27T19:12:39.818Z,2.50
2019-06-27T19:15:09.953Z,1.85
2019-06-27T19:20:49.891Z,1.50
2019-06-27T19:23:53.642Z,1.60
2019-06-27T19:26:23.074Z,1.82
2019-06-27T19:28:52.605Z,1.70
2019-06-27T19:31:22.046Z,1.57
2019-06-27T19:33:51.603Z,2.45
2019-06-27T19:36:21.165Z,1.75
2019-06-27T19:38:50.687Z,2.05
2019-06-27T19:41:20.145Z,2.10
2019-06-27T19:43:49.743Z,2.00
2019-06-27T19:46:19.217Z,2.00
2019-06-27T19:48:58.922Z,2.27
2019-06-27T19:51:28.432Z,2.37
2019-06-27T19:53:58.166Z,2.10
2019-06-27T19:56:27.778Z,2.17
2019-06-27T19:58:57.279Z,2.20
2019-06-27T20:01:26.766Z,2.42
2019-06-27T20:03:56.264Z,2.50
2019-06-27T20:06:25.750Z,1.87
2019-06-27T20:08:55.235Z,2.33
2019-06-27T20:11:24.758Z,2.50
2019-06-27T20:13:54.251Z,2.12
2019-06-27T20:16:23.724Z,2.37
2019-06-27T20:18:53.212Z,2.45
2019-06-27T20:21:27.792Z,2.70
2019-06-27T20:23:57.217Z,2.60
2019-06-27T20:26:26.727Z,2.80
2019-06-27T20:28:56.176Z,2.50
2019-06-27T20:31:25.689Z,2.80
2019-06-27T20:33:55.174Z,2.95
2019-06-27T20:36:24.624Z,2.70
2019-06-27T20:38:54.084Z,2.90
2019-06-27T20:41:23.576Z,3.00
2019-06-27T20:43:53.031Z,2.70
2019-06-27T20:46:22.499Z,2.60
2019-06-27T20:48:54.018Z,2.70
2019-06-27T20:51:23.221Z,2.52
2019-06-27T20:53:52.645Z,2.75
2019-06-27T20:56:22.139Z,2.83
2019-06-27T20:58:51.686Z,3.00
2019-06-27T21:01:21.192Z,2.85
2019-06-27T21:03:50.683Z,2.70
2019-06-27T21:06:20.214Z,2.72
2019-06-27T21:08:51.692Z,2.87
2019-06-27T21:11:20.777Z,2.42
2019-06-27T21:13:50.310Z,2.40
2019-06-27T21:16:19.761Z,2.87
2019-06-27T21:18:49.241Z,2.45
2019-06-27T21:21:18.702Z,2.92
2019-06-27T21:23:48.166Z,2.35
2019-06-27T21:26:17.722Z,2.30
2019-06-27T21:28:47.171Z,2.35
2019-06-27T21:31:16.627Z,2.70
2019-06-27T21:33:46.099Z,2.60
2019-06-27T21:36:15.897Z,2.25
2019-06-27T21:38:45.350Z,2.20
2019-06-27T21:41:14.817Z,2.40
2019-06-27T21:43:44.291Z,2.35
2019-06-27T21:46:13.796Z,2.22
2019-06-27T21:48:43.270Z,2.00
2019-06-27T21:51:12.759Z,2.45
2019-06-27T21:53:42.221Z,2.35
2019-06-27T21:56:11.719Z,2.42
2019-06-27T21:58:41.174Z,2.35
2019-06-27T22:01:10.787Z,2.35
2019-06-27T22:03:40.251Z,2.37
2019-06-27T22:06:09.712Z,2.47
2019-06-27T22:08:39.173Z,2.50
2019-06-27T22:11:08.632Z,2.37
2019-06-27T22:13:38.078Z,2.30
2019-06-27T22:16:07.549Z,2.58
2019-06-27T22:18:36.981Z,2.30
2019-06-27T22:21:06.484Z,2.15
2019-06-27T22:23:35.916Z,2.20
2019-06-27T22:26:05.343Z,2.40
2019-06-27T22:28:34.775Z,2.58
2019-06-27T22:31:04.252Z,2.42
2019-06-27T22:33:33.680Z,2.60
2019-06-27T22:36:03.122Z,2.55
2019-06-27T22:38:50.188Z,3.10
2019-06-27T22:41:37.581Z,2.40
2019-06-27T22:44:25.029Z,2.75
2019-06-27T22:47:12.113Z,3.05
2019-06-27T22:49:42.321Z,2.52
2019-06-27T22:52:31.522Z,2.80
2019-06-27T22:55:02.080Z,2.83
2019-06-27T22:57:31.536Z,2.87
2019-06-27T23:00:01.018Z,2.95
2019-06-27T23:02:30.478Z,3.20
2019-06-27T23:04:59.963Z,3.30
2019-06-27T23:07:29.446Z,3.50
2019-06-27T23:09:58.918Z,3.75
2019-06-27T23:12:28.406Z,3.83
2019-06-27T23:14:57.842Z,4.40
2019-06-27T23:17:27.303Z,3.45
2019-06-27T23:19:56.810Z,4.15
2019-06-27T23:22:26.250Z,4.20
2019-06-27T23:24:55.753Z,4.33
2019-06-27T23:27:25.225Z,4.45
2019-06-27T23:29:54.658Z,5.28
2019-06-27T23:32:24.084Z,4.55
2019-06-27T23:34:53.551Z,4.42
2019-06-27T23:37:22.981Z,4.90
2019-06-27T23:39:52.411Z,4.47
2019-06-27T23:42:21.834Z,5.42
2019-06-27T23:44:51.279Z,5.10
2019-06-27T23:47:20.750Z,5.17
2019-06-27T23:49:50.236Z,5.40
2019-06-27T23:52:19.661Z,5.25
2019-06-27T23:54:49.116Z,5.25
2019-06-27T23:57:18.545Z,5.45
2019-06-27T23:59:48.077Z,5.30
